sensor_id;sensor_type;location;lat;lon;timestamp;P1;durP1;ratioP1;P2;durP2;ratioP2
34080;SDS011;20358;50.272;19.026;2022-08-19T00:02:11;11.00;;;8.82;;
34080;SDS011;20358;50.272;19.026;2022-08-19T00:05:19;10.48;;;9.48;;
34080;SDS011;20358;50.272;19.026;2022-08-19T00:08:28;10.68;;;9.57;;
34080;SDS011;20358;50.272;19.026;2022-08-19T00:11:36;14.25;;;10.45;;
34080;SDS011;20358;50.272;19.026;2022-08-19T00:14:44;10.70;;;9.60;;
34080;SDS011;20358;50.272;19.026;2022-08-19T00:17:51;10.85;;;9.65;;
34080;SDS011;20358;50.272;19.026;2022-08-19T00:20:57;10.77;;;9.70;;
34080;SDS011;20358;50.272;19.026;2022-08-19T00:24:09;10.68;;;9.57;;
34080;SDS011;20358;50.272;19.026;2022-08-19T00:27:15;11.35;;;10.27;;
34080;SDS011;20358;50.272;19.026;2022-08-19T00:30:28;11.57;;;9.73;;
34080;SDS011;20358;50.272;19.026;2022-08-19T00:33:34;10.98;;;9.88;;
34080;SDS011;20358;50.272;19.026;2022-08-19T00:36:42;11.60;;;10.50;;
34080;SDS011;20358;50.272;19.026;2022-08-19T00:39:51;11.13;;;9.80;;
34080;SDS011;20358;50.272;19.026;2022-08-19T00:42:59;12.70;;;11.40;;
34080;SDS011;20358;50.272;19.026;2022-08-19T00:46:05;14.30;;;12.85;;
34080;SDS011;20358;50.272;19.026;2022-08-19T00:49:12;15.13;;;13.63;;
34080;SDS011;20358;50.272;19.026;2022-08-19T00:52:28;14.85;;;13.40;;
34080;SDS011;20358;50.272;19.026;2022-08-19T00:55:41;13.65;;;12.38;;
34080;SDS011;20358;50.272;19.026;2022-08-19T00:58:53;12.63;;;11.40;;
34080;SDS011;20358;50.272;19.026;2022-08-19T01:02:04;11.02;;;10.05;;
34080;SDS011;20358;50.272;19.026;2022-08-19T01:05:11;12.50;;;11.30;;
34080;SDS011;20358;50.272;19.026;2022-08-19T01:08:21;12.82;;;11.05;;
34080;SDS011;20358;50.272;19.026;2022-08-19T01:11:31;13.10;;;11.80;;
34080;SDS011;20358;50.272;19.026;2022-08-19T01:14:42;12.20;;;11.00;;
34080;SDS011;20358;50.272;19.026;2022-08-19T01:17:48;11.88;;;10.77;;
34080;SDS011;20358;50.272;19.026;2022-08-19T01:21:04;13.73;;;11.57;;
34080;SDS011;20358;50.272;19.026;2022-08-19T01:24:20;12.57;;;11.35;;
34080;SDS011;20358;50.272;19.026;2022-08-19T01:27:28;13.18;;;11.98;;
34080;SDS011;20358;50.272;19.026;2022-08-19T01:30:45;13.32;;;11.80;;
34080;SDS011;20358;50.272;19.026;2022-08-19T01:33:54;13.35;;;12.13;;
34080;SDS011;20358;50.272;19.026;2022-08-19T01:37:05;12.85;;;11.60;;
34080;SDS011;20358;50.272;19.026;2022-08-19T01:40:18;13.57;;;12.18;;
34080;SDS011;20358;50.272;19.026;2022-08-19T01:43:26;13.38;;;12.05;;
34080;SDS011;20358;50.272;19.026;2022-08-19T01:46:33;14.10;;;11.60;;
34080;SDS011;20358;50.272;19.026;2022-08-19T01:49:39;14.15;;;12.45;;
34080;SDS011;20358;50.272;19.026;2022-08-19T01:52:46;13.98;;;12.38;;
34080;SDS011;20358;50.272;19.026;2022-08-19T01:56:06;17.95;;;11.95;;
34080;SDS011;20358;50.272;19.026;2022-08-19T01:59:14;13.63;;;11.90;;
34080;SDS011;20358;50.272;19.026;2022-08-19T02:02:22;14.23;;;12.93;;
34080;SDS011;20358;50.272;19.026;2022-08-19T02:05:29;16.85;;;13.27;;
34080;SDS011;20358;50.272;19.026;2022-08-19T02:08:36;14.60;;;13.18;;
34080;SDS011;20358;50.272;19.026;2022-08-19T02:11:51;13.95;;;12.75;;
34080;SDS011;20358;50.272;19.026;2022-08-19T02:14:58;15.68;;;13.63;;
34080;SDS011;20358;50.272;19.026;2022-08-19T02:18:05;14.65;;;13.20;;
34080;SDS011;20358;50.272;19.026;2022-08-19T02:21:11;15.13;;;13.55;;
34080;SDS011;20358;50.272;19.026;2022-08-19T02:24:19;15.57;;;13.65;;
34080;SDS011;20358;50.272;19.026;2022-08-19T02:27:28;15.07;;;13.35;;
34080;SDS011;20358;50.272;19.026;2022-08-19T02:30:35;15.13;;;13.60;;
34080;SDS011;20358;50.272;19.026;2022-08-19T02:33:41;14.40;;;12.95;;
34080;SDS011;20358;50.272;19.026;2022-08-19T02:36:48;14.43;;;13.13;;
34080;SDS011;20358;50.272;19.026;2022-08-19T02:39:54;13.93;;;12.63;;
34080;SDS011;20358;50.272;19.026;2022-08-19T02:43:02;15.13;;;13.65;;
34080;SDS011;20358;50.272;19.026;2022-08-19T02:46:13;14.17;;;12.70;;
34080;SDS011;20358;50.272;19.026;2022-08-19T02:49:24;13.67;;;12.33;;
34080;SDS011;20358;50.272;19.026;2022-08-19T02:52:35;13.00;;;11.73;;
34080;SDS011;20358;50.272;19.026;2022-08-19T02:55:43;15.30;;;13.88;;
34080;SDS011;20358;50.272;19.026;2022-08-19T02:58:54;14.10;;;12.53;;
34080;SDS011;20358;50.272;19.026;2022-08-19T03:02:02;14.67;;;13.33;;
34080;SDS011;20358;50.272;19.026;2022-08-19T03:05:09;14.80;;;13.20;;
34080;SDS011;20358;50.272;19.026;2022-08-19T03:08:16;14.77;;;13.23;;
34080;SDS011;20358;50.272;19.026;2022-08-19T03:11:24;15.53;;;13.77;;
34080;SDS011;20358;50.272;19.026;2022-08-19T03:14:40;14.45;;;12.98;;
34080;SDS011;20358;50.272;19.026;2022-08-19T03:17:47;14.80;;;12.93;;
34080;SDS011;20358;50.272;19.026;2022-08-19T03:20:54;14.50;;;12.98;;
34080;SDS011;20358;50.272;19.026;2022-08-19T03:24:03;15.00;;;13.40;;
34080;SDS011;20358;50.272;19.026;2022-08-19T03:27:11;15.67;;;14.07;;
34080;SDS011;20358;50.272;19.026;2022-08-19T03:30:20;18.27;;;13.50;;
34080;SDS011;20358;50.272;19.026;2022-08-19T03:33:27;13.37;;;12.13;;
34080;SDS011;20358;50.272;19.026;2022-08-19T03:36:35;14.17;;;12.87;;
34080;SDS011;20358;50.272;19.026;2022-08-19T03:39:42;14.53;;;13.10;;
34080;SDS011;20358;50.272;19.026;2022-08-19T03:42:48;15.18;;;13.68;;
34080;SDS011;20358;50.272;19.026;2022-08-19T03:46:05;15.07;;;13.70;;
34080;SDS011;20358;50.272;19.026;2022-08-19T03:49:12;14.63;;;13.27;;
34080;SDS011;20358;50.272;19.026;2022-08-19T03:52:20;14.77;;;13.37;;
34080;SDS011;20358;50.272;19.026;2022-08-19T03:55:26;16.63;;;13.57;;
34080;SDS011;20358;50.272;19.026;2022-08-19T03:58:33;16.70;;;14.03;;
34080;SDS011;20358;50.272;19.026;2022-08-19T04:01:43;14.93;;;13.43;;
34080;SDS011;20358;50.272;19.026;2022-08-19T04:04:50;13.57;;;12.13;;
34080;SDS011;20358;50.272;19.026;2022-08-19T04:07:59;15.30;;;13.30;;
34080;SDS011;20358;50.272;19.026;2022-08-19T04:11:06;15.03;;;13.60;;
34080;SDS011;20358;50.272;19.026;2022-08-19T04:14:14;14.33;;;12.87;;
34080;SDS011;20358;50.272;19.026;2022-08-19T04:17:26;14.60;;;13.20;;
34080;SDS011;20358;50.272;19.026;2022-08-19T04:20:32;16.57;;;12.90;;
34080;SDS011;20358;50.272;19.026;2022-08-19T04:23:44;14.83;;;13.30;;
34080;SDS011;20358;50.272;19.026;2022-08-19T04:26:52;15.87;;;13.57;;
34080;SDS011;20358;50.272;19.026;2022-08-19T04:30:02;15.00;;;13.53;;
34080;SDS011;20358;50.272;19.026;2022-08-19T04:33:12;14.93;;;12.87;;
34080;SDS011;20358;50.272;19.026;2022-08-19T04:36:30;13.60;;;12.23;;
34080;SDS011;20358;50.272;19.026;2022-08-19T04:39:40;13.07;;;11.83;;
34080;SDS011;20358;50.272;19.026;2022-08-19T04:43:05;12.70;;;11.40;;
34080;SDS011;20358;50.272;19.026;2022-08-19T04:46:14;14.02;;;12.48;;
34080;SDS011;20358;50.272;19.026;2022-08-19T04:49:45;12.93;;;11.63;;
34080;SDS011;20358;50.272;19.026;2022-08-19T04:52:51;13.70;;;12.38;;
34080;SDS011;20358;50.272;19.026;2022-08-19T04:55:59;12.90;;;11.70;;
34080;SDS011;20358;50.272;19.026;2022-08-19T04:59:10;13.20;;;12.00;;
34080;SDS011;20358;50.272;19.026;2022-08-19T05:02:18;13.80;;;12.15;;
34080;SDS011;20358;50.272;19.026;2022-08-19T05:05:28;12.18;;;11.18;;
34080;SDS011;20358;50.272;19.026;2022-08-19T05:08:47;13.10;;;11.25;;
34080;SDS011;20358;50.272;19.026;2022-08-19T05:11:54;12.15;;;10.73;;
34080;SDS011;20358;50.272;19.026;2022-08-19T05:15:04;11.38;;;10.27;;
34080;SDS011;20358;50.272;19.026;2022-08-19T05:18:12;13.30;;;11.93;;
34080;SDS011;20358;50.272;19.026;2022-08-19T05:21:38;12.82;;;11.48;;
34080;SDS011;20358;50.272;19.026;2022-08-19T05:25:03;14.20;;;12.15;;
34080;SDS011;20358;50.272;19.026;2022-08-19T05:28:15;12.57;;;11.40;;
34080;SDS011;20358;50.272;19.026;2022-08-19T05:31:21;16.15;;;11.68;;
34080;SDS011;20358;50.272;19.026;2022-08-19T05:34:28;14.95;;;12.23;;
34080;SDS011;20358;50.272;19.026;2022-08-19T05:37:38;12.50;;;11.23;;
34080;SDS011;20358;50.272;19.026;2022-08-19T05:40:46;15.13;;;11.05;;
34080;SDS011;20358;50.272;19.026;2022-08-19T05:43:52;12.27;;;11.00;;
34080;SDS011;20358;50.272;19.026;2022-08-19T05:46:59;15.48;;;12.05;;
34080;SDS011;20358;50.272;19.026;2022-08-19T05:50:07;14.20;;;10.25;;
34080;SDS011;20358;50.272;19.026;2022-08-19T05:53:17;11.45;;;10.13;;
34080;SDS011;20358;50.272;19.026;2022-08-19T05:56:24;12.82;;;10.40;;
34080;SDS011;20358;50.272;19.026;2022-08-19T05:59:31;11.68;;;10.10;;
34080;SDS011;20358;50.272;19.026;2022-08-19T06:02:40;14.80;;;11.57;;
34080;SDS011;20358;50.272;19.026;2022-08-19T06:05:50;12.77;;;10.38;;
34080;SDS011;20358;50.272;19.026;2022-08-19T06:09:00;11.40;;;10.38;;
34080;SDS011;20358;50.272;19.026;2022-08-19T06:12:08;12.18;;;10.65;;
34080;SDS011;20358;50.272;19.026;2022-08-19T06:15:14;11.63;;;10.45;;
34080;SDS011;20358;50.272;19.026;2022-08-19T06:18:21;12.73;;;10.00;;
34080;SDS011;20358;50.272;19.026;2022-08-19T06:21:28;12.65;;;9.38;;
34080;SDS011;20358;50.272;19.026;2022-08-19T06:24:38;12.00;;;9.13;;
34080;SDS011;20358;50.272;19.026;2022-08-19T06:27:44;9.80;;;8.77;;
34080;SDS011;20358;50.272;19.026;2022-08-19T06:31:12;11.45;;;9.73;;
34080;SDS011;20358;50.272;19.026;2022-08-19T06:34:19;13.00;;;9.82;;
34080;SDS011;20358;50.272;19.026;2022-08-19T06:37:26;9.23;;;8.32;;
34080;SDS011;20358;50.272;19.026;2022-08-19T06:40:35;10.88;;;8.80;;
34080;SDS011;20358;50.272;19.026;2022-08-19T06:43:41;10.52;;;8.88;;
34080;SDS011;20358;50.272;19.026;2022-08-19T06:46:47;14.60;;;9.82;;
34080;SDS011;20358;50.272;19.026;2022-08-19T06:49:57;13.52;;;9.38;;
34080;SDS011;20358;50.272;19.026;2022-08-19T06:53:06;11.35;;;9.10;;
34080;SDS011;20358;50.272;19.026;2022-08-19T06:56:18;11.88;;;9.57;;
34080;SDS011;20358;50.272;19.026;2022-08-19T06:59:27;10.68;;;8.40;;
34080;SDS011;20358;50.272;19.026;2022-08-19T07:02:35;12.43;;;9.07;;
34080;SDS011;20358;50.272;19.026;2022-08-19T07:05:42;9.18;;;8.23;;
34080;SDS011;20358;50.272;19.026;2022-08-19T07:08:49;10.68;;;8.90;;
34080;SDS011;20358;50.272;19.026;2022-08-19T07:12:00;13.60;;;10.23;;
34080;SDS011;20358;50.272;19.026;2022-08-19T07:15:09;11.43;;;9.30;;
34080;SDS011;20358;50.272;19.026;2022-08-19T07:18:16;11.52;;;8.73;;
34080;SDS011;20358;50.272;19.026;2022-08-19T07:21:26;12.02;;;8.77;;
34080;SDS011;20358;50.272;19.026;2022-08-19T07:24:38;10.52;;;8.60;;
34080;SDS011;20358;50.272;19.026;2022-08-19T07:27:56;9.45;;;8.50;;
34080;SDS011;20358;50.272;19.026;2022-08-19T07:31:02;10.00;;;8.98;;
34080;SDS011;20358;50.272;19.026;2022-08-19T07:34:11;10.68;;;8.63;;
34080;SDS011;20358;50.272;19.026;2022-08-19T07:37:18;13.15;;;9.32;;
34080;SDS011;20358;50.272;19.026;2022-08-19T07:40:25;9.25;;;8.35;;
34080;SDS011;20358;50.272;19.026;2022-08-19T07:43:34;10.65;;;8.32;;
34080;SDS011;20358;50.272;19.026;2022-08-19T07:46:42;10.32;;;9.13;;
34080;SDS011;20358;50.272;19.026;2022-08-19T07:49:54;12.75;;;9.18;;
34080;SDS011;20358;50.272;19.026;2022-08-19T07:53:02;10.07;;;8.82;;
34080;SDS011;20358;50.272;19.026;2022-08-19T07:56:08;13.65;;;8.52;;
34080;SDS011;20358;50.272;19.026;2022-08-19T07:59:18;10.55;;;8.95;;
34080;SDS011;20358;50.272;19.026;2022-08-19T08:02:24;12.48;;;8.50;;
34080;SDS011;20358;50.272;19.026;2022-08-19T08:05:31;9.48;;;8.50;;
34080;SDS011;20358;50.272;19.026;2022-08-19T08:08:53;8.77;;;7.97;;
34080;SDS011;20358;50.272;19.026;2022-08-19T08:12:26;11.45;;;8.85;;
34080;SDS011;20358;50.272;19.026;2022-08-19T08:15:39;10.23;;;8.23;;
34080;SDS011;20358;50.272;19.026;2022-08-19T08:18:47;10.52;;;8.50;;
34080;SDS011;20358;50.272;19.026;2022-08-19T08:21:55;12.48;;;9.00;;
34080;SDS011;20358;50.272;19.026;2022-08-19T08:25:06;8.32;;;7.53;;
34080;SDS011;20358;50.272;19.026;2022-08-19T08:28:15;11.05;;;8.85;;
34080;SDS011;20358;50.272;19.026;2022-08-19T08:31:26;9.23;;;8.38;;
34080;SDS011;20358;50.272;19.026;2022-08-19T08:34:34;8.98;;;8.10;;
34080;SDS011;20358;50.272;19.026;2022-08-19T08:37:41;19.23;;;9.98;;
34080;SDS011;20358;50.272;19.026;2022-08-19T08:40:52;13.38;;;8.63;;
34080;SDS011;20358;50.272;19.026;2022-08-19T08:44:11;11.25;;;8.63;;
34080;SDS011;20358;50.272;19.026;2022-08-19T08:47:26;9.85;;;8.85;;
34080;SDS011;20358;50.272;19.026;2022-08-19T08:50:41;11.88;;;10.30;;
34080;SDS011;20358;50.272;19.026;2022-08-19T08:53:52;11.93;;;9.77;;
34080;SDS011;20358;50.272;19.026;2022-08-19T08:57:03;10.40;;;8.75;;
34080;SDS011;20358;50.272;19.026;2022-08-19T09:00:15;16.13;;;9.90;;
34080;SDS011;20358;50.272;19.026;2022-08-19T09:03:27;14.57;;;9.32;;
34080;SDS011;20358;50.272;19.026;2022-08-19T09:06:37;12.90;;;9.05;;
34080;SDS011;20358;50.272;19.026;2022-08-19T09:09:50;14.57;;;9.63;;
34080;SDS011;20358;50.272;19.026;2022-08-19T09:13:04;16.58;;;9.80;;
34080;SDS011;20358;50.272;19.026;2022-08-19T09:16:20;12.05;;;9.00;;
34080;SDS011;20358;50.272;19.026;2022-08-19T09:19:32;10.40;;;8.70;;
34080;SDS011;20358;50.272;19.026;2022-08-19T09:22:40;10.05;;;8.38;;
34080;SDS011;20358;50.272;19.026;2022-08-19T09:25:48;16.92;;;9.25;;
34080;SDS011;20358;50.272;19.026;2022-08-19T09:28:56;14.55;;;10.02;;
34080;SDS011;20358;50.272;19.026;2022-08-19T09:32:04;10.50;;;7.75;;
34080;SDS011;20358;50.272;19.026;2022-08-19T09:35:31;12.57;;;8.25;;
34080;SDS011;20358;50.272;19.026;2022-08-19T09:38:54;11.25;;;7.30;;
34080;SDS011;20358;50.272;19.026;2022-08-19T09:42:04;8.00;;;7.20;;
34080;SDS011;20358;50.272;19.026;2022-08-19T09:45:31;9.75;;;7.43;;
34080;SDS011;20358;50.272;19.026;2022-08-19T09:48:39;12.65;;;7.60;;
34080;SDS011;20358;50.272;19.026;2022-08-19T09:51:51;11.52;;;7.90;;
34080;SDS011;20358;50.272;19.026;2022-08-19T09:54:59;10.50;;;7.40;;
34080;SDS011;20358;50.272;19.026;2022-08-19T09:58:08;12.15;;;7.47;;
34080;SDS011;20358;50.272;19.026;2022-08-19T10:01:16;9.23;;;7.03;;
34080;SDS011;20358;50.272;19.026;2022-08-19T10:04:25;10.88;;;7.07;;
34080;SDS011;20358;50.272;19.026;2022-08-19T10:07:55;8.55;;;6.95;;
34080;SDS011;20358;50.272;19.026;2022-08-19T10:11:05;6.93;;;6.10;;
34080;SDS011;20358;50.272;19.026;2022-08-19T10:14:32;10.95;;;6.93;;
34080;SDS011;20358;50.272;19.026;2022-08-19T10:17:40;10.15;;;7.30;;
34080;SDS011;20358;50.272;19.026;2022-08-19T10:21:02;8.52;;;6.90;;
34080;SDS011;20358;50.272;19.026;2022-08-19T10:24:15;8.82;;;7.00;;
34080;SDS011;20358;50.272;19.026;2022-08-19T10:27:23;9.77;;;6.45;;
34080;SDS011;20358;50.272;19.026;2022-08-19T10:30:33;10.70;;;7.03;;
34080;SDS011;20358;50.272;19.026;2022-08-19T10:33:42;15.85;;;7.43;;
34080;SDS011;20358;50.272;19.026;2022-08-19T10:36:55;12.10;;;7.28;;
34080;SDS011;20358;50.272;19.026;2022-08-19T10:40:09;10.93;;;7.00;;
34080;SDS011;20358;50.272;19.026;2022-08-19T10:43:16;15.23;;;7.65;;
34080;SDS011;20358;50.272;19.026;2022-08-19T10:46:24;10.75;;;6.65;;
34080;SDS011;20358;50.272;19.026;2022-08-19T10:49:34;9.38;;;7.00;;
34080;SDS011;20358;50.272;19.026;2022-08-19T10:53:03;9.90;;;6.95;;
34080;SDS011;20358;50.272;19.026;2022-08-19T10:56:13;10.82;;;6.75;;
34080;SDS011;20358;50.272;19.026;2022-08-19T10:59:36;10.38;;;6.78;;
34080;SDS011;20358;50.272;19.026;2022-08-19T11:02:43;8.10;;;6.63;;
34080;SDS011;20358;50.272;19.026;2022-08-19T11:05:56;9.05;;;6.63;;
34080;SDS011;20358;50.272;19.026;2022-08-19T11:09:04;8.88;;;6.78;;
34080;SDS011;20358;50.272;19.026;2022-08-19T11:12:14;9.15;;;6.88;;
34080;SDS011;20358;50.272;19.026;2022-08-19T11:15:21;9.82;;;7.38;;
34080;SDS011;20358;50.272;19.026;2022-08-19T11:18:28;9.90;;;8.10;;
34080;SDS011;20358;50.272;19.026;2022-08-19T11:21:35;10.75;;;6.97;;
34080;SDS011;20358;50.272;19.026;2022-08-19T11:24:43;8.27;;;5.93;;
34080;SDS011;20358;50.272;19.026;2022-08-19T11:27:52;9.18;;;5.55;;
34080;SDS011;20358;50.272;19.026;2022-08-19T11:30:59;8.82;;;6.03;;
34080;SDS011;20358;50.272;19.026;2022-08-19T11:34:06;9.35;;;6.10;;
34080;SDS011;20358;50.272;19.026;2022-08-19T11:37:15;9.20;;;6.13;;
34080;SDS011;20358;50.272;19.026;2022-08-19T11:40:21;8.75;;;6.07;;
34080;SDS011;20358;50.272;19.026;2022-08-19T11:43:31;7.50;;;6.13;;
34080;SDS011;20358;50.272;19.026;2022-08-19T11:46:39;10.90;;;5.70;;
34080;SDS011;20358;50.272;19.026;2022-08-19T11:49:49;9.52;;;5.65;;
34080;SDS011;20358;50.272;19.026;2022-08-19T11:52:56;6.93;;;5.75;;
34080;SDS011;20358;50.272;19.026;2022-08-19T11:56:04;9.13;;;5.75;;
34080;SDS011;20358;50.272;19.026;2022-08-19T11:59:13;6.85;;;6.03;;
34080;SDS011;20358;50.272;19.026;2022-08-19T12:02:20;6.25;;;5.70;;
34080;SDS011;20358;50.272;19.026;2022-08-19T12:05:27;8.95;;;6.65;;
34080;SDS011;20358;50.272;19.026;2022-08-19T12:08:36;8.50;;;6.22;;
34080;SDS011;20358;50.272;19.026;2022-08-19T12:11:42;7.88;;;6.05;;
34080;SDS011;20358;50.272;19.026;2022-08-19T12:14:53;8.02;;;5.93;;
34080;SDS011;20358;50.272;19.026;2022-08-19T12:18:02;12.07;;;6.07;;
34080;SDS011;20358;50.272;19.026;2022-08-19T12:21:09;8.68;;;6.07;;
34080;SDS011;20358;50.272;19.026;2022-08-19T12:24:16;8.57;;;5.60;;
34080;SDS011;20358;50.272;19.026;2022-08-19T12:27:26;8.05;;;5.53;;
34080;SDS011;20358;50.272;19.026;2022-08-19T12:30:45;6.03;;;5.40;;
34080;SDS011;20358;50.272;19.026;2022-08-19T12:33:53;7.38;;;5.75;;
34080;SDS011;20358;50.272;19.026;2022-08-19T12:37:01;9.15;;;5.60;;
34080;SDS011;20358;50.272;19.026;2022-08-19T12:40:10;9.60;;;5.97;;
34080;SDS011;20358;50.272;19.026;2022-08-19T12:43:17;8.70;;;6.22;;
34080;SDS011;20358;50.272;19.026;2022-08-19T12:46:27;5.88;;;5.28;;
34080;SDS011;20358;50.272;19.026;2022-08-19T12:49:35;6.20;;;5.50;;
34080;SDS011;20358;50.272;19.026;2022-08-19T12:52:54;8.60;;;4.78;;
34080;SDS011;20358;50.272;19.026;2022-08-19T12:56:03;7.95;;;5.38;;
34080;SDS011;20358;50.272;19.026;2022-08-19T12:59:14;11.15;;;5.97;;
34080;SDS011;20358;50.272;19.026;2022-08-19T13:02:23;7.82;;;6.30;;
34080;SDS011;20358;50.272;19.026;2022-08-19T13:05:31;7.13;;;5.40;;
34080;SDS011;20358;50.272;19.026;2022-08-19T13:08:38;9.05;;;5.68;;
34080;SDS011;20358;50.272;19.026;2022-08-19T13:11:48;8.25;;;5.53;;
34080;SDS011;20358;50.272;19.026;2022-08-19T13:14:54;11.48;;;5.93;;
34080;SDS011;20358;50.272;19.026;2022-08-19T13:18:07;7.97;;;5.53;;
34080;SDS011;20358;50.272;19.026;2022-08-19T13:21:14;9.13;;;5.55;;
34080;SDS011;20358;50.272;19.026;2022-08-19T13:24:25;7.30;;;4.95;;
34080;SDS011;20358;50.272;19.026;2022-08-19T13:27:35;12.27;;;5.63;;
34080;SDS011;20358;50.272;19.026;2022-08-19T13:30:46;9.65;;;5.53;;
34080;SDS011;20358;50.272;19.026;2022-08-19T13:34:11;13.13;;;5.97;;
34080;SDS011;20358;50.272;19.026;2022-08-19T13:37:18;7.93;;;5.40;;
34080;SDS011;20358;50.272;19.026;2022-08-19T13:40:43;9.07;;;5.40;;
34080;SDS011;20358;50.272;19.026;2022-08-19T13:43:51;9.38;;;5.43;;
34080;SDS011;20358;50.272;19.026;2022-08-19T13:47:00;6.22;;;5.00;;
34080;SDS011;20358;50.272;19.026;2022-08-19T13:50:14;10.05;;;5.82;;
34080;SDS011;20358;50.272;19.026;2022-08-19T13:53:22;10.77;;;5.45;;
34080;SDS011;20358;50.272;19.026;2022-08-19T13:56:29;9.35;;;6.00;;
34080;SDS011;20358;50.272;19.026;2022-08-19T13:59:36;7.32;;;5.72;;
34080;SDS011;20358;50.272;19.026;2022-08-19T14:02:43;9.77;;;5.65;;
34080;SDS011;20358;50.272;19.026;2022-08-19T14:05:53;8.75;;;5.68;;
34080;SDS011;20358;50.272;19.026;2022-08-19T14:09:02;9.40;;;5.72;;
34080;SDS011;20358;50.272;19.026;2022-08-19T14:12:08;9.02;;;5.70;;
34080;SDS011;20358;50.272;19.026;2022-08-19T14:15:15;7.43;;;5.40;;
34080;SDS011;20358;50.272;19.026;2022-08-19T14:18:21;12.77;;;6.13;;
34080;SDS011;20358;50.272;19.026;2022-08-19T14:21:33;6.97;;;5.85;;
34080;SDS011;20358;50.272;19.026;2022-08-19T14:24:42;7.57;;;5.95;;
34080;SDS011;20358;50.272;19.026;2022-08-19T14:27:51;8.68;;;5.57;;
34080;SDS011;20358;50.272;19.026;2022-08-19T14:30:58;8.43;;;6.40;;
34080;SDS011;20358;50.272;19.026;2022-08-19T14:34:05;6.65;;;5.43;;
34080;SDS011;20358;50.272;19.026;2022-08-19T14:37:17;8.02;;;5.07;;
34080;SDS011;20358;50.272;19.026;2022-08-19T14:40:25;13.90;;;5.75;;
34080;SDS011;20358;50.272;19.026;2022-08-19T14:43:32;7.82;;;5.20;;
34080;SDS011;20358;50.272;19.026;2022-08-19T14:46:39;11.10;;;6.03;;
34080;SDS011;20358;50.272;19.026;2022-08-19T14:49:50;8.68;;;4.82;;
34080;SDS011;20358;50.272;19.026;2022-08-19T14:53:01;11.50;;;5.90;;
34080;SDS011;20358;50.272;19.026;2022-08-19T14:56:14;11.20;;;6.10;;
34080;SDS011;20358;50.272;19.026;2022-08-19T14:59:23;6.82;;;5.30;;
34080;SDS011;20358;50.272;19.026;2022-08-19T15:02:29;10.02;;;5.38;;
34080;SDS011;20358;50.272;19.026;2022-08-19T15:05:37;9.45;;;5.45;;
34080;SDS011;20358;50.272;19.026;2022-08-19T15:08:46;7.97;;;5.32;;
34080;SDS011;20358;50.272;19.026;2022-08-19T15:11:54;9.10;;;5.95;;
34080;SDS011;20358;50.272;19.026;2022-08-19T15:15:03;10.38;;;5.50;;
34080;SDS011;20358;50.272;19.026;2022-08-19T15:18:11;9.68;;;5.65;;
34080;SDS011;20358;50.272;19.026;2022-08-19T15:21:17;9.20;;;5.47;;
34080;SDS011;20358;50.272;19.026;2022-08-19T15:24:32;7.72;;;5.80;;
34080;SDS011;20358;50.272;19.026;2022-08-19T15:27:49;14.15;;;5.80;;
34080;SDS011;20358;50.272;19.026;2022-08-19T15:30:56;11.23;;;5.40;;
34080;SDS011;20358;50.272;19.026;2022-08-19T15:34:04;8.70;;;5.50;;
34080;SDS011;20358;50.272;19.026;2022-08-19T15:37:12;11.80;;;5.90;;
34080;SDS011;20358;50.272;19.026;2022-08-19T15:40:21;11.52;;;6.10;;
34080;SDS011;20358;50.272;19.026;2022-08-19T15:43:29;13.30;;;6.50;;
34080;SDS011;20358;50.272;19.026;2022-08-19T15:46:36;11.82;;;5.80;;
34080;SDS011;20358;50.272;19.026;2022-08-19T15:49:44;11.73;;;6.65;;
34080;SDS011;20358;50.272;19.026;2022-08-19T15:52:52;10.65;;;6.25;;
34080;SDS011;20358;50.272;19.026;2022-08-19T15:56:05;8.98;;;6.40;;
34080;SDS011;20358;50.272;19.026;2022-08-19T15:59:11;11.25;;;5.93;;
34080;SDS011;20358;50.272;19.026;2022-08-19T16:02:33;10.50;;;5.93;;
34080;SDS011;20358;50.272;19.026;2022-08-19T16:05:55;10.85;;;5.38;;
34080;SDS011;20358;50.272;19.026;2022-08-19T16:09:18;10.43;;;5.75;;
34080;SDS011;20358;50.272;19.026;2022-08-19T16:12:31;7.15;;;5.25;;
34080;SDS011;20358;50.272;19.026;2022-08-19T16:15:38;9.57;;;5.97;;
34080;SDS011;20358;50.272;19.026;2022-08-19T16:18:46;10.85;;;6.05;;
34080;SDS011;20358;50.272;19.026;2022-08-19T16:21:55;9.95;;;6.03;;
34080;SDS011;20358;50.272;19.026;2022-08-19T16:25:03;9.30;;;6.05;;
34080;SDS011;20358;50.272;19.026;2022-08-19T16:28:17;11.85;;;6.55;;
34080;SDS011;20358;50.272;19.026;2022-08-19T16:31:24;12.02;;;6.05;;
34080;SDS011;20358;50.272;19.026;2022-08-19T16:34:33;13.18;;;6.07;;
34080;SDS011;20358;50.272;19.026;2022-08-19T16:37:39;10.52;;;6.47;;
34080;SDS011;20358;50.272;19.026;2022-08-19T16:40:47;9.45;;;6.38;;
34080;SDS011;20358;50.272;19.026;2022-08-19T16:43:58;12.52;;;6.30;;
34080;SDS011;20358;50.272;19.026;2022-08-19T16:47:05;11.15;;;5.90;;
34080;SDS011;20358;50.272;19.026;2022-08-19T16:50:13;10.35;;;6.45;;
34080;SDS011;20358;50.272;19.026;2022-08-19T16:53:36;8.27;;;6.40;;
34080;SDS011;20358;50.272;19.026;2022-08-19T16:56:43;9.98;;;6.10;;
34080;SDS011;20358;50.272;19.026;2022-08-19T16:59:54;11.88;;;7.15;;
34080;SDS011;20358;50.272;19.026;2022-08-19T17:03:05;8.77;;;5.75;;
34080;SDS011;20358;50.272;19.026;2022-08-19T17:06:18;7.55;;;6.20;;
34080;SDS011;20358;50.272;19.026;2022-08-19T17:09:27;9.32;;;6.90;;
34080;SDS011;20358;50.272;19.026;2022-08-19T17:12:34;9.75;;;6.78;;
34080;SDS011;20358;50.272;19.026;2022-08-19T17:15:44;11.23;;;6.85;;
34080;SDS011;20358;50.272;19.026;2022-08-19T17:18:53;9.85;;;6.63;;
34080;SDS011;20358;50.272;19.026;2022-08-19T17:22:03;13.57;;;7.70;;
34080;SDS011;20358;50.272;19.026;2022-08-19T17:25:13;12.10;;;7.85;;
34080;SDS011;20358;50.272;19.026;2022-08-19T17:28:19;9.55;;;7.35;;
34080;SDS011;20358;50.272;19.026;2022-08-19T17:31:31;11.57;;;7.28;;
34080;SDS011;20358;50.272;19.026;2022-08-19T17:34:38;15.65;;;8.63;;
34080;SDS011;20358;50.272;19.026;2022-08-19T17:37:45;17.88;;;8.85;;
34080;SDS011;20358;50.272;19.026;2022-08-19T17:40:53;13.10;;;6.75;;
34080;SDS011;20358;50.272;19.026;2022-08-19T17:44:07;14.38;;;6.05;;
34080;SDS011;20358;50.272;19.026;2022-08-19T17:47:15;8.57;;;6.50;;
34080;SDS011;20358;50.272;19.026;2022-08-19T17:50:23;11.18;;;6.68;;
34080;SDS011;20358;50.272;19.026;2022-08-19T17:53:29;10.60;;;6.60;;
34080;SDS011;20358;50.272;19.026;2022-08-19T17:56:36;10.95;;;7.28;;
34080;SDS011;20358;50.272;19.026;2022-08-19T17:59:43;10.55;;;7.85;;
34080;SDS011;20358;50.272;19.026;2022-08-19T18:02:55;13.27;;;7.63;;
34080;SDS011;20358;50.272;19.026;2022-08-19T18:06:05;10.20;;;7.22;;
34080;SDS011;20358;50.272;19.026;2022-08-19T18:09:12;9.85;;;6.25;;
34080;SDS011;20358;50.272;19.026;2022-08-19T18:12:22;8.87;;;5.70;;
34080;SDS011;20358;50.272;19.026;2022-08-19T18:15:29;8.25;;;6.32;;
34080;SDS011;20358;50.272;19.026;2022-08-19T18:18:39;11.87;;;6.80;;
34080;SDS011;20358;50.272;19.026;2022-08-19T18:21:47;6.07;;;5.47;;
34080;SDS011;20358;50.272;19.026;2022-08-19T18:24:53;7.33;;;6.17;;
34080;SDS011;20358;50.272;19.026;2022-08-19T18:28:02;7.50;;;5.17;;
34080;SDS011;20358;50.272;19.026;2022-08-19T18:31:08;8.67;;;5.63;;